createdAt,value
2018-09-08T00:00:07.737Z,279
2018-09-08T00:00:20.138Z,315
2018-09-08T00:00:32.552Z,290
2018-09-08T00:00:44.962Z,332
2018-09-08T00:00:57.371Z,308
2018-09-08T00:01:09.786Z,333
2018-09-08T00:01:22.175Z,342
2018-09-08T00:01:34.572Z,327
2018-09-08T00:01:46.996Z,335
2018-09-08T00:01:59.552Z,288
2018-09-08T00:02:11.951Z,323
2018-09-08T00:02:24.350Z,306
2018-09-08T00:02:36.726Z,294
2018-09-08T00:02:49.109Z,335
2018-09-08T00:03:01.553Z,323
2018-09-08T00:03:14.129Z,339
2018-09-08T00:03:26.520Z,338
2018-09-08T00:03:38.912Z,338
2018-09-08T00:03:51.308Z,338
2018-09-08T00:04:03.728Z,325
2018-09-08T00:04:16.134Z,317
2018-09-08T00:04:28.544Z,332
2018-09-08T00:04:40.929Z,335
2018-09-08T00:04:53.316Z,335
2018-09-08T00:05:05.699Z,335
2018-09-08T00:05:18.080Z,307
2018-09-08T00:05:30.479Z,298
2018-09-08T00:05:42.860Z,279
2018-09-08T00:05:55.246Z,281
2018-09-08T00:06:07.615Z,306
2018-09-08T00:06:19.983Z,315
2018-09-08T00:06:32.628Z,294
2018-09-08T00:06:45.090Z,323
2018-09-08T00:06:57.472Z,318
2018-09-08T00:07:09.853Z,291
2018-09-08T00:07:22.518Z,321
2018-09-08T00:07:34.982Z,311
2018-09-08T00:07:47.368Z,308
2018-09-08T00:07:59.749Z,308
2018-09-08T00:08:12.313Z,310
2018-09-08T00:08:24.702Z,310
2018-09-08T00:08:37.100Z,310
2018-09-08T00:08:49.520Z,310
2018-09-08T00:09:01.912Z,310
2018-09-08T00:09:14.314Z,308
2018-09-08T00:09:26.706Z,311
2018-09-08T00:09:39.070Z,312
2018-09-08T00:09:51.450Z,304
2018-09-08T00:10:03.820Z,309
2018-09-08T00:10:16.213Z,297
2018-09-08T00:10:28.597Z,290
2018-09-08T00:10:41.018Z,292
2018-09-08T00:10:53.438Z,296
2018-09-08T00:11:05.830Z,297
2018-09-08T00:11:18.267Z,297
2018-09-08T00:11:30.643Z,309
2018-09-08T00:11:43.231Z,302
2018-09-08T00:11:55.600Z,302
2018-09-08T00:12:08.010Z,300
2018-09-08T00:12:20.391Z,300
2018-09-08T00:12:32.774Z,300
2018-09-08T00:12:45.233Z,300
2018-09-08T00:12:57.617Z,300
2018-09-08T00:13:10.037Z,311
2018-09-08T00:13:22.433Z,299
2018-09-08T00:13:34.825Z,299
2018-09-08T00:13:47.205Z,299
2018-09-08T00:13:59.573Z,299
2018-09-08T00:14:11.960Z,304
2018-09-08T00:14:24.342Z,269
2018-09-08T00:14:36.734Z,292
2018-09-08T00:14:49.109Z,286
2018-09-08T00:15:01.496Z,309
2018-09-08T00:15:13.907Z,315
2018-09-08T00:15:26.347Z,310
2018-09-08T00:15:38.741Z,300
2018-09-08T00:15:51.126Z,300
2018-09-08T00:16:03.760Z,300
2018-09-08T00:16:16.124Z,314
2018-09-08T00:16:28.516Z,322
2018-09-08T00:16:40.902Z,304
2018-09-08T00:16:53.287Z,286
2018-09-08T00:17:05.719Z,280
2018-09-08T00:17:18.104Z,329
2018-09-08T00:17:30.481Z,316
2018-09-08T00:17:43.033Z,329
2018-09-08T00:17:55.446Z,317
2018-09-08T00:18:07.828Z,294
2018-09-08T00:18:20.236Z,316
2018-09-08T00:18:32.634Z,300
2018-09-08T00:18:45.049Z,305
2018-09-08T00:18:57.453Z,297
2018-09-08T00:19:09.849Z,304
2018-09-08T00:19:22.256Z,304
2018-09-08T00:19:34.826Z,311
2018-09-08T00:19:47.225Z,319
2018-09-08T00:19:59.613Z,333
2018-09-08T00:20:12.041Z,271
2018-09-08T00:20:24.439Z,300
2018-09-08T00:20:37.443Z,307
2018-09-08T00:20:49.840Z,255
2018-09-08T00:21:02.271Z,297
2018-09-08T00:21:14.704Z,327
2018-09-08T00:21:27.183Z,334
2018-09-08T00:21:39.593Z,315
2018-09-08T00:21:52.011Z,328
2018-09-08T00:22:04.561Z,306
2018-09-08T00:22:17.001Z,311
2018-09-08T00:22:29.410Z,298
2018-09-08T00:22:41.802Z,308
2018-09-08T00:22:54.239Z,302
2018-09-08T00:23:06.864Z,304
2018-09-08T00:23:19.257Z,304
2018-09-08T00:23:31.632Z,305
2018-09-08T00:23:44.110Z,310
2018-09-08T00:23:56.598Z,313
2018-09-08T00:24:08.996Z,300
2018-09-08T00:24:21.386Z,313
2018-09-08T00:24:33.780Z,298
2018-09-08T00:24:46.329Z,302
2018-09-08T00:24:58.756Z,308
2018-09-08T00:25:11.195Z,313
2018-09-08T00:25:23.642Z,303
2018-09-08T00:25:36.034Z,296
2018-09-08T00:25:48.413Z,296
2018-09-08T00:26:01.252Z,296
2018-09-08T00:26:13.637Z,296
2018-09-08T00:26:26.010Z,296
2018-09-08T00:26:38.397Z,290
2018-09-08T00:26:50.938Z,290
2018-09-08T00:27:03.324Z,290
2018-09-08T00:27:15.718Z,281
2018-09-08T00:27:28.110Z,273
2018-09-08T00:27:40.489Z,312
2018-09-08T00:27:52.867Z,321
2018-09-08T00:28:05.239Z,311
2018-09-08T00:28:17.610Z,317
2018-09-08T00:28:29.980Z,304
2018-09-08T00:28:42.361Z,304
2018-09-08T00:28:54.762Z,304
2018-09-08T00:29:07.151Z,306
2018-09-08T00:29:19.586Z,306
2018-09-08T00:29:32.019Z,306
2018-09-08T00:29:44.402Z,297
2018-09-08T00:29:56.782Z,297
2018-09-08T00:30:09.162Z,297
2018-09-08T00:30:21.558Z,316
2018-09-08T00:30:33.931Z,297
2018-09-08T00:30:46.369Z,297
2018-09-08T00:30:58.749Z,296
2018-09-08T00:31:11.137Z,296
2018-09-08T00:31:23.523Z,296
2018-09-08T00:31:35.905Z,296
2018-09-08T00:31:48.321Z,296
2018-09-08T00:32:00.700Z,330
2018-09-08T00:32:13.083Z,310
2018-09-08T00:32:25.461Z,331
2018-09-08T00:32:37.844Z,318
2018-09-08T00:32:50.236Z,294
2018-09-08T00:33:02.627Z,312
2018-09-08T00:33:15.173Z,306
2018-09-08T00:33:27.591Z,291
2018-09-08T00:33:39.982Z,275
2018-09-08T00:33:52.355Z,296
2018-09-08T00:34:04.728Z,299
2018-09-08T00:34:17.106Z,314
2018-09-08T00:34:29.554Z,314
2018-09-08T00:34:41.955Z,314
2018-09-08T00:34:54.410Z,319
2018-09-08T00:35:06.794Z,307
2018-09-08T00:35:19.185Z,302
2018-09-08T00:35:31.565Z,315
2018-09-08T00:35:43.979Z,322
2018-09-08T00:35:56.351Z,308
2018-09-08T00:36:08.757Z,330
2018-09-08T00:36:21.162Z,310
2018-09-08T00:36:33.548Z,306
2018-09-08T00:36:45.935Z,308
2018-09-08T00:36:58.325Z,298
2018-09-08T00:37:10.753Z,306
2018-09-08T00:37:23.125Z,317
2018-09-08T00:37:35.494Z,309
2018-09-08T00:37:47.878Z,299
2018-09-08T00:38:00.270Z,299
2018-09-08T00:38:12.680Z,323
2018-09-08T00:38:25.458Z,291
2018-09-08T00:38:38.781Z,281
2018-09-08T00:38:51.191Z,281
2018-09-08T00:39:03.617Z,281
2018-09-08T00:39:16.013Z,281
2018-09-08T00:39:28.629Z,281
2018-09-08T00:39:41.004Z,332
2018-09-08T00:39:53.539Z,318
2018-09-08T00:40:06.227Z,311
2018-09-08T00:40:18.626Z,298
2018-09-08T00:40:31.018Z,298
2018-09-08T00:40:43.506Z,308
2018-09-08T00:40:55.899Z,300
2018-09-08T00:41:08.302Z,300
2018-09-08T00:41:20.679Z,300
2018-09-08T00:41:33.139Z,301
2018-09-08T00:41:45.532Z,298
2018-09-08T00:41:58.134Z,298
2018-09-08T00:42:10.547Z,297
2018-09-08T00:42:22.927Z,297
2018-09-08T00:42:35.314Z,297
2018-09-08T00:42:47.747Z,298
2018-09-08T00:43:00.139Z,298
2018-09-08T00:43:12.611Z,298
2018-09-08T00:43:25.066Z,298
2018-09-08T00:43:37.485Z,298
2018-09-08T00:43:49.861Z,298
2018-09-08T00:44:02.250Z,298
2018-09-08T00:44:14.657Z,298
2018-09-08T00:44:27.033Z,298
2018-09-08T00:44:39.431Z,293
2018-09-08T00:44:51.848Z,273
2018-09-08T00:45:04.243Z,280
2018-09-08T00:45:16.617Z,280
2018-09-08T00:45:29.002Z,327
2018-09-08T00:45:41.528Z,306
2018-09-08T00:45:54.687Z,303
2018-09-08T00:46:07.633Z,296
2018-09-08T00:46:20.003Z,299
2018-09-08T00:46:32.383Z,325
2018-09-08T00:46:44.760Z,314
2018-09-08T00:46:57.137Z,318
2018-09-08T00:47:09.517Z,301
2018-09-08T00:47:21.921Z,301
2018-09-08T00:47:34.306Z,302
2018-09-08T00:47:46.704Z,302
2018-09-08T00:47:59.107Z,302
2018-09-08T00:48:11.517Z,306
2018-09-08T00:48:23.908Z,307
2018-09-08T00:48:36.305Z,307
2018-09-08T00:48:48.725Z,307
2018-09-08T00:49:01.139Z,307
2018-09-08T00:49:13.667Z,307
2018-09-08T00:49:26.079Z,302
2018-09-08T00:49:38.489Z,319
2018-09-08T00:49:50.892Z,319
2018-09-08T00:50:03.268Z,307
2018-09-08T00:50:15.649Z,304
2018-09-08T00:50:28.045Z,304
2018-09-08T00:50:40.460Z,302
2018-09-08T00:50:52.846Z,304
2018-09-08T00:51:05.246Z,305
2018-09-08T00:51:17.628Z,305
2018-09-08T00:51:30.034Z,305
2018-09-08T00:51:42.493Z,305
2018-09-08T00:51:54.897Z,305
2018-09-08T00:52:07.298Z,305
2018-09-08T00:52:19.680Z,305
2018-09-08T00:52:32.074Z,305
2018-09-08T00:52:44.460Z,305
2018-09-08T00:52:57.213Z,306
2018-09-08T00:53:09.597Z,309
2018-09-08T00:53:21.974Z,311
2018-09-08T00:53:34.375Z,294
2018-09-08T00:53:46.777Z,319
2018-09-08T00:53:59.182Z,319
2018-09-08T00:54:11.557Z,319
2018-09-08T00:54:23.950Z,297
2018-09-08T00:54:36.353Z,296
2018-09-08T00:54:48.762Z,301
2018-09-08T00:55:01.147Z,279
2018-09-08T00:55:13.564Z,297
2018-09-08T00:55:25.940Z,288
2018-09-08T00:55:38.325Z,288
2018-09-08T00:55:50.691Z,288
2018-09-08T00:56:03.076Z,288
2018-09-08T00:56:15.502Z,288
2018-09-08T00:56:27.882Z,289
2018-09-08T00:56:40.255Z,301
2018-09-08T00:56:52.801Z,296
2018-09-08T00:57:05.205Z,284
2018-09-08T00:57:17.598Z,284
2018-09-08T00:57:30.009Z,284
2018-09-08T00:57:42.449Z,284
2018-09-08T00:57:54.855Z,343
2018-09-08T00:58:07.289Z,343
2018-09-08T00:58:19.681Z,343
2018-09-08T00:58:32.064Z,343
2018-09-08T00:58:44.457Z,343
2018-09-08T00:58:57.057Z,343
2018-09-08T00:59:09.461Z,343
2018-09-08T00:59:21.845Z,343
2018-09-08T00:59:34.239Z,343
2018-09-08T00:59:46.715Z,343
2018-09-08T00:59:59.106Z,343
2018-09-08T01:00:11.519Z,343
2018-09-08T01:00:23.914Z,343
2018-09-08T01:00:36.376Z,343
2018-09-08T01:00:48.897Z,343
2018-09-08T01:01:01.332Z,343
2018-09-08T01:01:13.743Z,343
2018-09-08T01:01:26.214Z,343
2018-09-08T01:01:38.628Z,343
2018-09-08T01:01:51.030Z,343
2018-09-08T01:02:03.555Z,343
2018-09-08T01:02:15.957Z,343
2018-09-08T01:02:28.361Z,343
2018-09-08T01:02:40.761Z,343
2018-09-08T01:02:53.170Z,343
2018-09-08T01:03:05.576Z,343
2018-09-08T01:03:18.104Z,343
2018-09-08T01:03:30.523Z,343
2018-09-08T01:03:43.282Z,343
2018-09-08T01:03:57.029Z,343
2018-09-08T01:04:09.414Z,343
2018-09-08T01:04:21.816Z,343
2018-09-08T01:04:34.210Z,343
2018-09-08T01:04:46.610Z,343
2018-09-08T01:04:59.012Z,343
2018-09-08T01:05:11.442Z,343
2018-09-08T01:05:23.823Z,343
2018-09-08T01:05:36.231Z,343
2018-09-08T01:05:48.655Z,343
2018-09-08T01:06:01.062Z,343
2018-09-08T01:06:13.442Z,343
2018-09-08T01:06:25.817Z,343
2018-09-08T01:06:38.204Z,343
2018-09-08T01:06:50.778Z,343
2018-09-08T01:07:03.145Z,343
2018-09-08T01:07:15.623Z,343
2018-09-08T01:07:28.015Z,343
2018-09-08T01:07:40.520Z,343
2018-09-08T01:07:52.925Z,343
2018-09-08T01:08:05.348Z,343
2018-09-08T01:08:17.917Z,343
2018-09-08T01:08:30.329Z,343
2018-09-08T01:08:42.723Z,343
2018-09-08T01:08:55.144Z,343
2018-09-08T01:09:07.572Z,343
2018-09-08T01:09:19.958Z,343
2018-09-08T01:09:32.380Z,343
2018-09-08T01:09:44.758Z,343
2018-09-08T01:09:57.183Z,343
2018-09-08T01:10:09.589Z,343
2018-09-08T01:10:22.018Z,343
2018-09-08T01:10:34.421Z,343
2018-09-08T01:10:46.835Z,343
2018-09-08T01:10:59.224Z,343
2018-09-08T01:11:11.627Z,343
2018-09-08T01:11:24.031Z,343
2018-09-08T01:11:36.431Z,343
2018-09-08T01:11:49.267Z,343
2018-09-08T01:12:01.663Z,343
2018-09-08T01:12:14.044Z,343
2018-09-08T01:12:26.439Z,343
2018-09-08T01:12:38.946Z,343
2018-09-08T01:12:51.367Z,343
2018-09-08T01:13:03.751Z,343
2018-09-08T01:13:16.505Z,343
2018-09-08T01:13:28.926Z,343
2018-09-08T01:13:41.324Z,343
2018-09-08T01:13:53.713Z,343
2018-09-08T01:14:06.116Z,343
2018-09-08T01:14:18.504Z,343
2018-09-08T01:14:30.904Z,343
2018-09-08T01:14:43.299Z,343
2018-09-08T01:14:55.721Z,343
2018-09-08T01:15:08.105Z,343
2018-09-08T01:15:20.491Z,343
2018-09-08T01:15:32.886Z,343
2018-09-08T01:15:45.338Z,315
2018-09-08T01:15:57.740Z,315
2018-09-08T01:16:10.404Z,315
2018-09-08T01:16:22.881Z,315
2018-09-08T01:16:35.245Z,315
2018-09-08T01:16:47.624Z,315
2018-09-08T01:17:00.015Z,315
2018-09-08T01:17:12.411Z,315
2018-09-08T01:17:24.815Z,315
2018-09-08T01:17:37.330Z,315
2018-09-08T01:17:49.700Z,315
2018-09-08T01:18:02.083Z,315
2018-09-08T01:18:14.455Z,315
2018-09-08T01:18:26.847Z,315
2018-09-08T01:18:39.217Z,315
2018-09-08T01:18:51.595Z,315
2018-09-08T01:19:04.030Z,315
2018-09-08T01:19:16.421Z,315
2018-09-08T01:19:28.829Z,315
2018-09-08T01:19:41.197Z,315
2018-09-08T01:19:53.624Z,315
2018-09-08T01:20:06.021Z,315
2018-09-08T01:20:18.419Z,315
2018-09-08T01:20:30.912Z,315
2018-09-08T01:20:43.563Z,315
2018-09-08T01:20:55.952Z,315
2018-09-08T01:21:08.349Z,315
2018-09-08T01:21:20.721Z,315
2018-09-08T01:21:33.136Z,315
2018-09-08T01:21:45.511Z,315
2018-09-08T01:21:57.906Z,315
2018-09-08T01:22:10.309Z,315
2018-09-08T01:22:22.709Z,315
2018-09-08T01:22:35.133Z,315
2018-09-08T01:22:47.502Z,315
2018-09-08T01:22:59.898Z,315
2018-09-08T01:23:12.368Z,315
2018-09-08T01:23:24.754Z,315
2018-09-08T01:23:37.242Z,315
2018-09-08T01:23:49.675Z,315
2018-09-08T01:24:02.111Z,315
2018-09-08T01:24:14.481Z,315
2018-09-08T01:24:26.881Z,315
2018-09-08T01:24:39.266Z,315
2018-09-08T01:24:51.763Z,315
2018-09-08T01:25:04.195Z,315
2018-09-08T01:25:16.585Z,315
2018-09-08T01:25:29.070Z,315
2018-09-08T01:25:41.472Z,315
2018-09-08T01:25:53.853Z,315
2018-09-08T01:26:06.317Z,315
2018-09-08T01:26:18.706Z,315
2018-09-08T01:26:31.112Z,315
2018-09-08T01:26:43.636Z,315
2018-09-08T01:26:56.054Z,315
2018-09-08T01:27:08.459Z,315
2018-09-08T01:27:20.848Z,315
2018-09-08T01:27:33.249Z,315
2018-09-08T01:27:45.616Z,315
2018-09-08T01:27:57.990Z,315
2018-09-08T01:28:10.367Z,315
2018-09-08T01:28:22.740Z,315
2018-09-08T01:28:35.113Z,315
2018-09-08T01:28:47.494Z,315
2018-09-08T01:28:59.879Z,315
2018-09-08T01:29:12.287Z,315
2018-09-08T01:29:24.649Z,315
2018-09-08T01:29:37.015Z,315
2018-09-08T01:29:49.385Z,315
2018-09-08T01:30:01.781Z,315
2018-09-08T01:30:14.212Z,315
2018-09-08T01:30:26.710Z,315
2018-09-08T01:30:39.092Z,315
2018-09-08T01:30:51.456Z,315
2018-09-08T01:31:03.848Z,315
2018-09-08T01:31:16.229Z,315
2018-09-08T01:31:28.615Z,315
2018-09-08T01:31:41.005Z,315
2018-09-08T01:31:53.385Z,315
2018-09-08T01:32:05.789Z,315
2018-09-08T01:32:18.172Z,315
2018-09-08T01:32:30.559Z,315
2018-09-08T01:32:42.942Z,315
2018-09-08T01:32:55.337Z,315
2018-09-08T01:33:07.770Z,315
2018-09-08T01:33:20.166Z,315
2018-09-08T01:33:32.583Z,315
2018-09-08T01:33:44.977Z,315
2018-09-08T01:33:57.417Z,315
2018-09-08T01:34:09.800Z,315
2018-09-08T01:34:22.166Z,315
2018-09-08T01:34:34.557Z,315
2018-09-08T01:34:46.952Z,315
2018-09-08T01:34:59.339Z,315
2018-09-08T01:35:11.722Z,315
2018-09-08T01:35:24.158Z,315
2018-09-08T01:35:36.542Z,315
2018-09-08T01:35:48.918Z,315
2018-09-08T01:36:01.297Z,315
2018-09-08T01:36:14.720Z,315
2018-09-08T01:36:27.086Z,315
2018-09-08T01:36:39.492Z,315
2018-09-08T01:36:51.904Z,315
2018-09-08T01:37:04.341Z,315
2018-09-08T01:37:16.718Z,315
2018-09-08T01:37:29.260Z,315
2018-09-08T01:37:41.670Z,315
2018-09-08T01:37:54.062Z,315
2018-09-08T01:38:06.432Z,315
2018-09-08T01:38:18.795Z,315
2018-09-08T01:38:31.175Z,315
2018-09-08T01:38:43.563Z,315
2018-09-08T01:38:55.954Z,315
2018-09-08T01:39:08.339Z,315
2018-09-08T01:39:20.724Z,315
2018-09-08T01:39:33.110Z,315
2018-09-08T01:39:45.486Z,315
2018-09-08T01:39:57.874Z,315
2018-09-08T01:40:10.263Z,315
2018-09-08T01:40:22.645Z,315
2018-09-08T01:40:35.064Z,315
2018-09-08T01:40:47.454Z,315
2018-09-08T01:40:59.868Z,315
2018-09-08T01:41:12.244Z,315
2018-09-08T01:41:24.639Z,315
2018-09-08T01:41:37.027Z,315
2018-09-08T01:41:49.396Z,315
2018-09-08T01:42:01.782Z,315
2018-09-08T01:42:14.235Z,315
2018-09-08T01:42:26.728Z,315
2018-09-08T01:42:39.097Z,315
2018-09-08T01:42:51.470Z,315
2018-09-08T01:43:03.885Z,315
2018-09-08T01:43:16.298Z,315
2018-09-08T01:43:28.670Z,315
2018-09-08T01:43:41.037Z,315
2018-09-08T01:43:53.423Z,315
2018-09-08T01:44:05.795Z,315
2018-09-08T01:44:18.181Z,315
2018-09-08T01:44:30.572Z,315
2018-09-08T01:44:42.977Z,315
2018-09-08T01:44:55.346Z,315
2018-09-08T01:45:07.726Z,315
2018-09-08T01:45:20.127Z,315
2018-09-08T01:45:32.493Z,315
2018-09-08T01:45:44.863Z,315
2018-09-08T01:45:57.281Z,315
2018-09-08T01:46:09.689Z,315
2018-09-08T01:46:22.081Z,315
2018-09-08T01:46:34.486Z,315
2018-09-08T01:46:46.868Z,315
2018-09-08T01:46:59.243Z,315
2018-09-08T01:47:11.629Z,315
2018-09-08T01:47:24.023Z,315
2018-09-08T01:47:36.402Z,315
2018-09-08T01:47:48.791Z,315
2018-09-08T01:48:01.183Z,315
2018-09-08T01:48:13.562Z,315
2018-09-08T01:48:25.953Z,315
2018-09-08T01:48:38.341Z,315
2018-09-08T01:48:50.715Z,315
2018-09-08T01:49:03.113Z,315
2018-09-08T01:49:15.604Z,315
2018-09-08T01:49:28.008Z,315
2018-09-08T01:49:40.403Z,315
2018-09-08T01:49:52.796Z,315
2018-09-08T01:50:05.181Z,315
2018-09-08T01:50:17.565Z,315
2018-09-08T01:50:29.929Z,315
2018-09-08T01:50:42.316Z,315
2018-09-08T01:50:54.700Z,315
2018-09-08T01:51:07.083Z,315
2018-09-08T01:51:19.453Z,315
2018-09-08T01:51:31.839Z,315
2018-09-08T01:51:44.211Z,315
2018-09-08T01:51:56.586Z,315
2018-09-08T01:52:08.979Z,315
2018-09-08T01:52:21.359Z,315
2018-09-08T01:52:33.753Z,315
2018-09-08T01:52:46.132Z,315
2018-09-08T01:52:58.581Z,315
2018-09-08T01:53:10.988Z,315
2018-09-08T01:53:23.386Z,315
2018-09-08T01:53:35.784Z,315
2018-09-08T01:53:48.159Z,315
2018-09-08T01:54:00.550Z,315
2018-09-08T01:54:12.949Z,315
2018-09-08T01:54:25.316Z,315
2018-09-08T01:54:37.690Z,315
2018-09-08T01:54:50.086Z,315
2018-09-08T01:55:02.450Z,315
2018-09-08T01:55:14.853Z,315
2018-09-08T01:55:27.242Z,315
2018-09-08T01:55:39.617Z,315
2018-09-08T01:55:51.990Z,315
2018-09-08T01:56:04.386Z,315
2018-09-08T01:56:16.757Z,315
2018-09-08T01:56:29.132Z,315
2018-09-08T01:56:41.505Z,315
2018-09-08T01:56:53.899Z,315
2018-09-08T01:57:06.332Z,315
2018-09-08T01:57:18.707Z,315
2018-09-08T01:57:31.096Z,315
2018-09-08T01:57:43.531Z,315
2018-09-08T01:57:55.970Z,315
2018-09-08T01:58:08.355Z,315
2018-09-08T01:58:20.745Z,315
2018-09-08T01:58:33.141Z,315
2018-09-08T01:58:45.505Z,315
2018-09-08T01:58:57.890Z,315
2018-09-08T01:59:10.277Z,315
2018-09-08T01:59:22.663Z,315
2018-09-08T01:59:35.049Z,315
2018-09-08T01:59:48.235Z,315
2018-09-08T02:00:00.610Z,315
2018-09-08T02:00:13.093Z,315
2018-09-08T02:00:25.495Z,315
2018-09-08T02:00:37.925Z,315
2018-09-08T02:00:50.315Z,315
2018-09-08T02:01:02.704Z,315
2018-09-08T02:01:15.832Z,315
2018-09-08T02:01:28.310Z,315
2018-09-08T02:01:40.730Z,315
2018-09-08T02:01:53.197Z,315
2018-09-08T02:02:05.642Z,315
2018-09-08T02:02:18.055Z,315
2018-09-08T02:02:30.434Z,315
2018-09-08T02:02:42.820Z,315
2018-09-08T02:02:55.211Z,315
2018-09-08T02:03:07.759Z,315
2018-09-08T02:03:20.167Z,315
2018-09-08T02:03:32.540Z,315
2018-09-08T02:03:44.938Z,315
2018-09-08T02:03:57.346Z,315
2018-09-08T02:04:09.732Z,315
2018-09-08T02:04:22.134Z,315
2018-09-08T02:04:34.531Z,315
2018-09-08T02:04:46.983Z,315
2018-09-08T02:04:59.387Z,315
2018-09-08T02:05:11.791Z,315
2018-09-08T02:05:24.193Z,315
2018-09-08T02:05:36.570Z,315
2018-09-08T02:05:48.974Z,315
2018-09-08T02:06:01.366Z,315
2018-09-08T02:06:13.765Z,315
2018-09-08T02:06:26.136Z,315
2018-09-08T02:06:38.527Z,315
2018-09-08T02:06:51.299Z,315
2018-09-08T02:07:03.696Z,315
2018-09-08T02:07:16.072Z,315
2018-09-08T02:07:28.456Z,315
2018-09-08T02:07:40.961Z,315
2018-09-08T02:07:53.478Z,315
2018-09-08T02:08:05.878Z,315
2018-09-08T02:08:18.340Z,315
2018-09-08T02:08:30.726Z,315
2018-09-08T02:08:43.124Z,315
2018-09-08T02:08:55.561Z,315
2018-09-08T02:09:07.975Z,315
2018-09-08T02:09:20.507Z,315
2018-09-08T02:09:32.899Z,315
2018-09-08T02:09:45.279Z,315
2018-09-08T02:09:57.691Z,315
2018-09-08T02:10:10.073Z,315
2018-09-08T02:10:22.472Z,315
2018-09-08T02:10:34.888Z,315
2018-09-08T02:10:47.278Z,315
2018-09-08T02:10:59.692Z,315
2018-09-08T02:11:12.082Z,315
2018-09-08T02:11:24.481Z,315
2018-09-08T02:11:36.873Z,315
2018-09-08T02:11:49.419Z,315
2018-09-08T02:12:01.817Z,315
2018-09-08T02:12:14.254Z,315
2018-09-08T02:12:26.700Z,315
2018-09-08T02:12:39.239Z,315
2018-09-08T02:12:51.639Z,287
2018-09-08T02:13:04.053Z,287
2018-09-08T02:13:16.458Z,287
2018-09-08T02:13:29.017Z,287
2018-09-08T02:13:41.402Z,287
2018-09-08T02:13:53.797Z,287
2018-09-08T02:14:06.227Z,287
2018-09-08T02:14:18.609Z,287
2018-09-08T02:14:31.021Z,287
2018-09-08T02:14:43.418Z,287
2018-09-08T02:14:55.832Z,287
2018-09-08T02:15:08.286Z,287
2018-09-08T02:15:20.681Z,287
2018-09-08T02:15:33.050Z,287
2018-09-08T02:15:45.424Z,287
2018-09-08T02:15:57.795Z,287
2018-09-08T02:16:10.574Z,287
2018-09-08T02:16:22.935Z,287
2018-09-08T02:16:35.304Z,287
2018-09-08T02:16:47.685Z,287
2018-09-08T02:17:00.067Z,287
2018-09-08T02:17:12.461Z,287
2018-09-08T02:17:24.834Z,287
2018-09-08T02:17:37.353Z,287
2018-09-08T02:17:49.725Z,287
2018-09-08T02:18:02.116Z,287
2018-09-08T02:18:14.617Z,287
2018-09-08T02:18:27.025Z,287
2018-09-08T02:18:39.411Z,287
2018-09-08T02:18:51.801Z,287
2018-09-08T02:19:04.186Z,287
2018-09-08T02:19:16.586Z,287
2018-09-08T02:19:28.976Z,287
2018-09-08T02:19:41.365Z,287
2018-09-08T02:19:53.724Z,287
2018-09-08T02:20:06.109Z,287
2018-09-08T02:20:18.487Z,287
2018-09-08T02:20:31.460Z,287
2018-09-08T02:20:43.917Z,287
2018-09-08T02:20:56.310Z,287
2018-09-08T02:21:08.688Z,287
2018-09-08T02:21:21.056Z,287
2018-09-08T02:21:33.444Z,287
2018-09-08T02:21:45.838Z,287
2018-09-08T02:21:58.219Z,287
2018-09-08T02:22:10.606Z,287
2018-09-08T02:22:23.138Z,287
2018-09-08T02:22:35.547Z,287
2018-09-08T02:22:47.935Z,287
2018-09-08T02:23:00.784Z,287
2018-09-08T02:23:13.186Z,287
2018-09-08T02:23:25.576Z,287
2018-09-08T02:23:37.952Z,287
2018-09-08T02:23:50.434Z,287
2018-09-08T02:24:02.824Z,287
2018-09-08T02:24:15.224Z,287
2018-09-08T02:24:27.626Z,287
2018-09-08T02:24:40.028Z,287
2018-09-08T02:24:52.621Z,287
2018-09-08T02:25:05.030Z,287
2018-09-08T02:25:17.675Z,287
2018-09-08T02:25:31.016Z,287
2018-09-08T02:25:43.751Z,287
2018-09-08T02:25:56.124Z,287
2018-09-08T02:26:08.547Z,287
2018-09-08T02:26:20.972Z,287
2018-09-08T02:26:33.374Z,287
2018-09-08T02:26:45.840Z,287
2018-09-08T02:26:58.232Z,287
2018-09-08T02:27:10.614Z,287
2018-09-08T02:27:23.111Z,287
2018-09-08T02:27:35.501Z,287
2018-09-08T02:27:47.888Z,287
2018-09-08T02:28:00.338Z,287
2018-09-08T02:28:12.714Z,287
2018-09-08T02:28:25.135Z,287
2018-09-08T02:28:37.526Z,287
2018-09-08T02:28:49.934Z,287
2018-09-08T02:29:02.410Z,287
2018-09-08T02:29:14.808Z,287
2018-09-08T02:29:27.197Z,287
2018-09-08T02:29:39.571Z,287
2018-09-08T02:29:51.979Z,287
2018-09-08T02:30:04.417Z,287
2018-09-08T02:30:16.831Z,287
2018-09-08T02:30:29.240Z,287
2018-09-08T02:30:41.631Z,287
2018-09-08T02:30:54.094Z,287
2018-09-08T02:31:06.522Z,287
2018-09-08T02:31:18.944Z,287
2018-09-08T02:31:31.328Z,287
2018-09-08T02:31:43.746Z,287
2018-09-08T02:31:56.127Z,287
2018-09-08T02:32:08.525Z,287
2018-09-08T02:32:20.967Z,287
2018-09-08T02:32:33.373Z,287
2018-09-08T02:32:45.768Z,287
2018-09-08T02:32:58.152Z,287
2018-09-08T02:33:10.551Z,287
2018-09-08T02:33:22.932Z,287
2018-09-08T02:33:35.331Z,287
2018-09-08T02:33:47.726Z,287
2018-09-08T02:34:00.109Z,287
2018-09-08T02:34:12.500Z,287
2018-09-08T02:34:24.922Z,287
2018-09-08T02:34:37.342Z,287
2018-09-08T02:34:49.767Z,287
2018-09-08T02:35:02.329Z,287
2018-09-08T02:35:14.737Z,287
2018-09-08T02:35:27.168Z,287
2018-09-08T02:35:39.608Z,287
2018-09-08T02:35:52.056Z,287
2018-09-08T02:36:04.462Z,287
2018-09-08T02:36:16.861Z,287
2018-09-08T02:36:29.249Z,287
2018-09-08T02:36:41.657Z,287
2018-09-08T02:36:54.045Z,287
2018-09-08T02:37:06.448Z,287
2018-09-08T02:37:18.845Z,287
2018-09-08T02:37:31.255Z,287
2018-09-08T02:37:43.637Z,287
2018-09-08T02:37:56.023Z,287
2018-09-08T02:38:08.413Z,287
2018-09-08T02:38:20.814Z,287
2018-09-08T02:38:33.216Z,287
2018-09-08T02:38:45.615Z,287
2018-09-08T02:38:58.024Z,287
2018-09-08T02:39:10.435Z,287
2018-09-08T02:39:22.838Z,287
2018-09-08T02:39:35.235Z,287
2018-09-08T02:39:47.625Z,287
2018-09-08T02:40:00.038Z,287
2018-09-08T02:40:12.453Z,287
2018-09-08T02:40:24.869Z,287
2018-09-08T02:40:37.260Z,287
2018-09-08T02:40:49.645Z,287
2018-09-08T02:41:02.047Z,287
2018-09-08T02:41:14.448Z,287
2018-09-08T02:41:26.859Z,287
2018-09-08T02:41:39.284Z,287
2018-09-08T02:41:51.741Z,287
2018-09-08T02:42:04.132Z,287
2018-09-08T02:42:16.527Z,287
2018-09-08T02:42:28.920Z,287
2018-09-08T02:42:41.304Z,287
2018-09-08T02:42:53.708Z,287
2018-09-08T02:43:06.328Z,287
2018-09-08T02:43:18.733Z,287
2018-09-08T02:43:31.160Z,287
2018-09-08T02:43:43.576Z,287
2018-09-08T02:43:55.983Z,287
2018-09-08T02:44:08.386Z,287
2018-09-08T02:44:20.790Z,287
2018-09-08T02:44:33.179Z,287
2018-09-08T02:44:45.556Z,287
2018-09-08T02:44:57.954Z,287
2018-09-08T02:45:10.351Z,287
2018-09-08T02:45:22.734Z,287
2018-09-08T02:45:35.111Z,287
2018-09-08T02:45:47.513Z,287
2018-09-08T02:45:59.958Z,287
2018-09-08T02:46:12.379Z,287
2018-09-08T02:46:24.741Z,287
2018-09-08T02:46:37.170Z,287
2018-09-08T02:46:49.621Z,287
2018-09-08T02:47:02.164Z,287
2018-09-08T02:47:14.534Z,287
2018-09-08T02:47:26.960Z,287
2018-09-08T02:47:39.330Z,287
2018-09-08T02:47:51.737Z,287
2018-09-08T02:48:04.143Z,286
2018-09-08T02:48:16.511Z,286
2018-09-08T02:48:28.907Z,286
2018-09-08T02:48:41.289Z,286
2018-09-08T02:48:53.711Z,286
2018-09-08T02:49:06.085Z,286
2018-09-08T02:49:18.657Z,286
2018-09-08T02:49:31.035Z,286
2018-09-08T02:49:43.423Z,286
2018-09-08T02:49:55.833Z,286
2018-09-08T02:50:08.237Z,286
2018-09-08T02:50:20.634Z,286
2018-09-08T02:50:33.016Z,286
2018-09-08T02:50:45.453Z,286
2018-09-08T02:50:57.836Z,286
2018-09-08T02:51:10.231Z,286